Orbital elements of COSMOS 1275 DEB
| Launched | 3 June 1981 |
| Flight ended | – |
| Launch site | Plesetsk Missile and Space Complex, Russia |
| Owner | Commonwealth of Independent States (former USSR) |
| NORAD ID | 12772 |
| Date fetched |
Epoch osculation |
Inc. [°] |
Ecc. | RA asc node [hr] |
Arg Peri. [°] |
Mean anom [°] |
Mean motion [rev/day] |
Abs. mag |
| Date fetched |
Epoch osculation |
Inc. [°] |
Ecc. | RA asc node [hr] |
Arg Peri. [°] |
Mean anom [°] |
Mean motion [rev/day] |
Abs. mag |
| 2026 May 03 17:57 | 2026 Apr 30 08:34:05 | 82.9232 | 0.00382 | 15.8979 | 37.8318 | 322.5539 | 14.20057 | – |
| 2026 May 02 17:57 | 2026 Apr 30 08:34:05 | 82.9232 | 0.00382 | 15.8979 | 37.8318 | 322.5539 | 14.20057 | – |
| 2026 May 01 17:56 | 2026 Apr 30 08:34:05 | 82.9232 | 0.00382 | 15.8979 | 37.8318 | 322.5539 | 14.20057 | – |
| 2026 Apr 30 17:56 | 2026 Apr 30 08:34:05 | 82.9232 | 0.00382 | 15.8979 | 37.8318 | 322.5539 | 14.20057 | – |
| 2026 Apr 29 17:57 | 2026 Apr 23 07:27:34 | 82.9225 | 0.00392 | 16.2741 | 58.7298 | 322.5539 | 14.20057 | – |
| 2026 Apr 28 17:56 | 2026 Apr 23 07:27:34 | 82.9225 | 0.00392 | 16.2741 | 58.7298 | 322.5539 | 14.20057 | – |
| 2026 Apr 27 17:58 | 2026 Apr 23 07:27:34 | 82.9225 | 0.00392 | 16.2741 | 58.7298 | 322.5539 | 14.20057 | – |
| 2026 Apr 26 17:58 | 2026 Apr 23 07:27:34 | 82.9225 | 0.00392 | 16.2741 | 58.7298 | 322.5539 | 14.20057 | – |
| 2026 Apr 25 17:58 | 2026 Apr 23 07:27:34 | 82.9225 | 0.00392 | 16.2741 | 58.7298 | 322.5539 | 14.20057 | – |
| 2026 Apr 24 17:59 | 2026 Apr 23 07:27:34 | 82.9225 | 0.00392 | 16.2741 | 58.7298 | 322.5539 | 14.20057 | – |
| 2026 Apr 23 17:57 | 2026 Apr 19 08:45:24 | 82.9222 | 0.00397 | 16.4848 | 70.2647 | 322.5539 | 14.20057 | – |
| 2026 Apr 22 17:57 | 2026 Apr 19 08:45:24 | 82.9222 | 0.00397 | 16.4848 | 70.2647 | 322.5539 | 14.20057 | – |
| 2026 Apr 21 17:57 | 2026 Apr 19 08:45:24 | 82.9222 | 0.00397 | 16.4848 | 70.2647 | 322.5539 | 14.20057 | – |
| 2026 Apr 20 17:57 | 2026 Apr 19 08:45:24 | 82.9222 | 0.00397 | 16.4848 | 70.2647 | 322.5539 | 14.20057 | – |
| 2026 Apr 19 17:58 | 2026 Apr 19 08:45:24 | 82.9222 | 0.00397 | 16.4848 | 70.2647 | 322.5539 | 14.20057 | – |
| 2026 Apr 18 17:56 | 2026 Apr 12 19:28:48 | 82.9216 | 0.00403 | 16.8346 | 89.2076 | 322.5539 | 14.20057 | – |
| 2026 Apr 16 17:57 | 2026 Apr 12 19:28:48 | 82.9216 | 0.00403 | 16.8346 | 89.2076 | 322.5539 | 14.20057 | – |
| 2026 Apr 14 17:57 | 2026 Apr 12 19:28:48 | 82.9216 | 0.00403 | 16.8346 | 89.2076 | 322.5539 | 14.20057 | – |
| 2026 Apr 13 17:57 | 2026 Apr 12 19:28:48 | 82.9216 | 0.00403 | 16.8346 | 89.2076 | 322.5539 | 14.20057 | – |
| 2026 Apr 12 17:57 | 2026 Apr 08 10:37:39 | 82.9221 | 0.00406 | 17.0678 | 101.6298 | 322.5539 | 14.20057 | – |
| 2026 Apr 11 17:57 | 2026 Apr 08 10:37:39 | 82.9221 | 0.00406 | 17.0678 | 101.6298 | 322.5539 | 14.20057 | – |
| 2026 Apr 10 17:58 | 2026 Apr 08 10:37:39 | 82.9221 | 0.00406 | 17.0678 | 101.6298 | 322.5539 | 14.20057 | – |
| 2026 Apr 09 18:01 | 2026 Apr 08 10:37:39 | 82.9221 | 0.00406 | 17.0678 | 101.6298 | 322.5539 | 14.20057 | – |
| 2026 Apr 08 17:57 | 2026 Apr 08 10:37:39 | 82.9221 | 0.00406 | 17.0678 | 101.6298 | 322.5539 | 14.20057 | – |
| 2026 Apr 07 17:57 | 2026 Apr 02 04:06:36 | 82.9208 | 0.00408 | 17.4027 | 119.4601 | 322.5539 | 14.20057 | – |
| 2026 Apr 06 17:57 | 2026 Apr 02 04:06:36 | 82.9208 | 0.00408 | 17.4027 | 119.4601 | 322.5539 | 14.20057 | – |